createdAt,value
2023-05-19T04:31:14.470Z,100869.66
2023-05-19T04:35:18.166Z,100869.66
2023-05-19T04:39:21.846Z,100870.81
2023-05-19T04:43:25.645Z,100875.41
2023-05-19T04:47:30.229Z,100878.22
2023-05-19T04:51:33.394Z,100879.91
2023-05-19T04:55:37.820Z,100875.22
2023-05-19T04:59:41.741Z,100885.56
2023-05-19T05:03:46.123Z,100878.81
2023-05-19T05:07:49.734Z,100871.37
2023-05-19T05:11:53.469Z,100869.22
2023-05-19T05:15:59.967Z,100876.97
2023-05-19T05:20:04.750Z,100881.03
2023-05-19T05:24:09.126Z,100881.09
2023-05-19T05:28:12.295Z,100880.84
2023-05-19T05:32:17.240Z,100889.38
2023-05-19T05:36:20.103Z,100890.87
2023-05-19T05:40:23.210Z,100887.28
2023-05-19T05:44:26.064Z,100888.84
2023-05-19T05:48:29.904Z,100889.16
2023-05-19T05:52:34.713Z,100887.53
2023-05-19T05:56:38.988Z,100894.50
2023-05-19T06:00:48.716Z,100896.53
2023-05-19T06:04:51.972Z,100906.50
2023-05-19T06:08:54.872Z,100903.88
2023-05-19T06:12:59.141Z,100905.53
2023-05-19T06:17:02.311Z,100917.00
2023-05-19T06:21:05.716Z,100924.50
2023-05-19T06:25:11.196Z,100932.78
2023-05-19T06:29:15.640Z,100931.63
2023-05-19T06:33:18.898Z,100933.78
2023-05-19T06:37:23.313Z,100945.72
2023-05-19T06:41:26.391Z,100933.78
2023-05-19T06:45:29.657Z,100932.09
2023-05-19T06:49:32.746Z,100935.53
2023-05-19T06:53:36.440Z,100934.16
2023-05-19T06:57:41.158Z,100936.47
2023-05-19T07:01:45.103Z,100942.25
2023-05-19T07:05:48.215Z,100926.88
2023-05-19T07:09:51.747Z,100923.72
2023-05-19T07:13:55.821Z,100927.28
2023-05-19T07:17:59.346Z,100924.16
2023-05-19T07:22:02.570Z,100928.41
2023-05-19T07:26:05.893Z,100928.37
2023-05-19T07:30:09.166Z,100931.81
2023-05-19T07:34:12.264Z,100928.59
2023-05-19T07:38:15.871Z,100929.41
2023-05-19T07:42:22.485Z,100927.06
2023-05-19T07:46:25.951Z,100924.44
2023-05-19T07:50:29.957Z,100931.47
2023-05-19T07:54:32.886Z,100932.84
2023-05-19T07:58:35.949Z,100939.19
2023-05-19T08:02:38.788Z,100923.78
2023-05-19T08:06:42.955Z,100922.50
2023-05-19T08:10:46.820Z,100922.47
2023-05-19T08:14:49.989Z,100920.75
2023-05-19T08:18:52.817Z,100931.38
2023-05-19T08:22:55.929Z,100923.59
2023-05-19T08:26:58.759Z,100922.88
2023-05-19T08:31:02.287Z,100916.13
2023-05-19T08:35:06.269Z,100916.44
2023-05-19T08:39:09.283Z,100918.09
2023-05-19T08:43:12.163Z,100921.37
2023-05-19T08:47:15.458Z,100918.47
2023-05-19T08:51:33.596Z,100916.44
2023-05-19T08:56:01.901Z,100912.97
2023-05-19T09:00:10.054Z,100911.56
2023-05-19T09:04:13.824Z,100909.19
2023-05-19T09:08:16.713Z,100892.22
2023-05-19T09:12:20.706Z,100893.31
2023-05-19T09:16:27.893Z,100901.97
2023-05-19T09:20:33.516Z,100906.53
2023-05-19T09:24:36.587Z,100901.66
2023-05-19T09:28:40.668Z,100896.69
2023-05-19T09:32:44.773Z,100893.16
2023-05-19T09:36:51.991Z,100896.12
2023-05-19T09:40:57.597Z,100895.75
2023-05-19T09:45:03.768Z,100891.22
2023-05-19T09:49:10.486Z,100889.44
2023-05-19T09:53:14.724Z,100882.47
2023-05-19T09:57:17.969Z,100876.09
2023-05-19T10:01:21.662Z,100873.31
2023-05-19T10:05:25.280Z,100864.16
2023-05-19T10:09:29.506Z,100865.38
2023-05-19T10:13:35.359Z,100856.69
2023-05-19T10:17:42.551Z,100859.97
2023-05-19T10:21:46.855Z,100852.59
2023-05-19T10:25:52.140Z,100849.88
2023-05-19T10:29:57.769Z,100855.62
2023-05-19T10:34:19.318Z,100831.91
2023-05-19T10:38:33.663Z,100836.13
2023-05-19T10:43:13.841Z,100825.59
2023-05-19T10:47:26.184Z,100835.53
2023-05-19T10:51:33.963Z,100826.87
2023-05-19T10:55:52.202Z,100824.81
2023-05-19T10:59:57.282Z,100812.31
2023-05-19T11:04:12.931Z,100808.88
2023-05-19T11:08:17.696Z,100808.28
2023-05-19T11:12:25.584Z,100799.47
2023-05-19T11:16:35.124Z,100801.91
2023-05-19T11:20:40.061Z,100809.97
2023-05-19T11:24:56.151Z,100803.72
2023-05-19T11:29:00.273Z,100795.88
2023-05-19T11:33:03.285Z,100798.31
2023-05-19T11:37:07.163Z,100798.22
2023-05-19T11:41:11.194Z,100787.53
2023-05-19T11:45:14.516Z,100777.66
2023-05-19T11:49:17.876Z,100785.91
2023-05-19T11:53:21.615Z,100780.53
2023-05-19T11:57:24.557Z,100783.44
2023-05-19T12:01:28.135Z,100779.56
2023-05-19T12:05:34.964Z,100782.63
2023-05-19T12:09:40.833Z,100775.44
2023-05-19T12:13:44.867Z,100777.78
2023-05-19T12:17:58.458Z,100773.38
2023-05-19T12:22:03.442Z,100768.63
2023-05-19T12:26:06.785Z,100760.88
2023-05-19T12:30:11.921Z,100760.19
2023-05-19T12:34:14.870Z,100749.22
2023-05-19T12:38:20.008Z,100761.59
2023-05-19T12:42:23.660Z,100744.69
2023-05-19T12:46:27.299Z,100750.62
2023-05-19T12:50:31.661Z,100745.94
2023-05-19T12:54:34.955Z,100730.06
2023-05-19T12:58:39.081Z,100723.22
2023-05-19T13:03:10.229Z,100716.91
2023-05-19T13:07:13.806Z,100717.25
2023-05-19T13:11:16.870Z,100714.53
2023-05-19T13:15:19.736Z,100707.59
2023-05-19T13:19:25.779Z,100711.09
2023-05-19T13:23:29.035Z,100710.22
2023-05-19T13:27:32.143Z,100703.59
2023-05-19T13:31:35.131Z,100703.78
2023-05-19T13:35:39.156Z,100696.78
2023-05-19T13:39:42.750Z,100688.22
2023-05-19T13:43:45.773Z,100678.13
2023-05-19T13:47:48.499Z,100680.47
2023-05-19T13:51:51.563Z,100677.91
2023-05-19T13:55:55.373Z,100672.81
2023-05-19T14:00:03.375Z,100662.88
2023-05-19T14:04:18.494Z,100669.31
2023-05-19T14:08:22.260Z,100661.22
2023-05-19T14:12:35.276Z,100659.66
2023-05-19T14:16:42.918Z,100658.81
2023-05-19T14:20:45.759Z,100657.03
2023-05-19T14:24:48.954Z,100658.28
2023-05-19T14:28:51.613Z,100656.81
2023-05-19T14:32:55.517Z,100650.59
2023-05-19T14:36:59.180Z,100664.09
2023-05-19T14:41:02.958Z,100654.25
2023-05-19T14:45:06.498Z,100655.66
2023-05-19T14:49:09.635Z,100652.62
2023-05-19T14:53:12.470Z,100652.22
2023-05-19T14:57:15.537Z,100648.75
2023-05-19T15:01:18.388Z,100655.66
2023-05-19T15:05:24.216Z,100658.66
